Starnav_pegasus — PPZP — position and weather

sailwx.info

Track history (hours):
 
Tides and Currents Weather Stations Pressure Air Temp Water Temp Dewpoint Dewpoint Depression Visibility Wind Speed Wind Dir Waves Ship Positions

Starnav_pegasus

Last reported at 2018-Feb-22 00:38 UTC. Time now 2018-Feb-24 02:19 UTC.
Position S 23°56' W 046°19'.

; draft 5.6 m.

Type: Ship. MMSI: 710005860.

Date/timePositionNaut miles runAvg speedWind from/ knotsBaromVisibWave heightAir tempDewpointWater temp
2018-Feb-22 00:38S 23°56' W 046°19'0 0.0
2018-Feb-22 00:29S 23°56' W 046°19'0 0.0
2018-Feb-21 23:32S 23°56' W 046°19'0 0.1
2018-Feb-21 23:26S 23°56' W 046°19'0 0.0
2018-Feb-21 22:57S 23°56' W 046°19'0 0.0
2018-Feb-21 22:21S 23°56' W 046°19'0 0.0
2018-Feb-21 21:51S 23°56' W 046°19'0 0.0
2018-Feb-21 21:27S 23°56' W 046°19'0 0.0
2018-Feb-21 20:57S 23°56' W 046°19'0 0.0
2018-Feb-21 20:21S 23°56' W 046°19'1 3.2
2018-Feb-21 19:58S 23°57' W 046°18'0 0.0
2018-Feb-21 19:26S 23°57' W 046°18'1 2.6
2018-Feb-21 18:59S 23°56' W 046°19'0 0.2
2018-Feb-21 18:27S 23°56' W 046°19'0 0.0
2018-Feb-21 17:57S 23°56' W 046°19'0 0.0
2018-Feb-21 17:23S 23°56' W 046°19'0 0.0
2018-Feb-21 16:59S 23°56' W 046°19'0 0.0
2018-Feb-21 16:28S 23°56' W 046°19'0 0.0
2018-Feb-21 16:00S 23°56' W 046°19'0 0.0
2018-Feb-21 15:21S 23°56' W 046°19'0 0.0
2018-Feb-21 14:55S 23°56' W 046°19'0 0.0
2018-Feb-21 14:30S 23°56' W 046°19'0 0.0
2018-Feb-21 13:41S 23°56' W 046°19'0 0.0
2018-Feb-21 13:12S 23°56' W 046°19'0 0.0
2018-Feb-21 12:44S 23°56' W 046°19'0 0.0
2018-Feb-21 12:27S 23°56' W 046°19'0 0.0
2018-Feb-21 11:59S 23°56' W 046°19'1 2.9
2018-Feb-21 11:29S 23°57' W 046°18'0 0.9
2018-Feb-21 11:00S 23°57' W 046°19'1 1.2
2018-Feb-21 10:11S 23°56' W 046°19'0 0.0
2018-Feb-21 09:56S 23°56' W 046°19'0 0.0
2018-Feb-21 08:13S 23°56' W 046°19'0 0.0
2018-Feb-21 07:53S 23°56' W 046°19'0 0.0
2018-Feb-21 07:23S 23°56' W 046°19'0 0.0
2018-Feb-21 06:47S 23°56' W 046°19'0 0.0
2018-Feb-21 06:27S 23°56' W 046°19'0 0.0
2018-Feb-21 05:02S 23°56' W 046°19'0 0.0
2018-Feb-21 04:59S 23°56' W 046°19'0 0.0
2018-Feb-21 02:16S 23°56' W 046°19'2 1.2
2018-Feb-21 00:56S 23°55' W 046°21'4 8.3
2018-Feb-21 00:28S 23°58' W 046°18'1 1.0
2018-Feb-20 23:26S 23°59' W 046°17'2 5.7
2018-Feb-20 23:00S 23°56' W 046°19'1 1.3
2018-Feb-20 22:21S 23°56' W 046°19'0 0.0
2018-Feb-20 19:39S 23°56' W 046°19'0 0.0
2018-Feb-20 19:30S 23°56' W 046°19'0 0.0
2018-Feb-20 18:03S 23°56' W 046°19'0 0.0
2018-Feb-20 16:20S 23°56' W 046°19'0 0.0
2018-Feb-20 15:50S 23°56' W 046°19'0 0.0
2018-Feb-20 15:29S 23°56' W 046°19'0 0.0
2018-Feb-20 14:06S 23°56' W 046°19'0 0.1
2018-Feb-20 14:00S 23°56' W 046°19'0 0.0
2018-Feb-20 12:56S 23°56' W 046°19'0 0.0
2018-Feb-20 12:26S 23°56' W 046°19'0 0.0
2018-Feb-20 10:44S 23°56' W 046°19'0 0.0
2018-Feb-20 10:21S 23°56' W 046°19'0 0.0
2018-Feb-20 09:59S 23°56' W 046°19'0 1.0
2018-Feb-20 09:30S 23°56' W 046°20'3 6.3
2018-Feb-20 09:00S 23°54' W 046°23'1 0.8
2018-Feb-20 07:39S 23°53' W 046°23'1 3.5
2018-Feb-20 07:30S 23°53' W 046°23'3 5.8
2018-Feb-20 07:00S 23°55' W 046°20'4 7.8
2018-Feb-20 06:30S 23°58' W 046°18'0 0.6
2018-Feb-20 06:00S 23°58' W 046°18'2 3.9
2018-Feb-20 05:30S 23°56' W 046°19'1 0.2
2018-Feb-20 01:17S 23°56' W 046°19'0 0.0
2018-Feb-20 00:37S 23°56' W 046°19'0 0.0
2018-Feb-20 00:14S 23°56' W 046°19'0 0.2
2018-Feb-19 23:56S 23°56' W 046°19'1 0.8
2018-Feb-19 23:07S 23°56' W 046°20'0 2.4
2018-Feb-19 23:00S 23°56' W 046°20'4 7.1
2018-Feb-19 22:30S 23°59' W 046°17'1 2.4
2018-Feb-19 21:57S 23°60' W 046°18'2 4.0
2018-Feb-19 21:30S 23°58' W 046°18'2 3.1
2018-Feb-19 20:45S 23°56' W 046°19'0 0.0
2018-Feb-19 20:28S 23°56' W 046°19'0 0.0
2018-Feb-19 19:56S 23°56' W 046°19'0 0.0
2018-Feb-19 19:29S 23°56' W 046°19'0 0.0
2018-Feb-19 18:53S 23°56' W 046°19'0 0.0
2018-Feb-19 18:25S 23°56' W 046°19'0 0.7
2018-Feb-19 18:00S 23°56' W 046°19'0 0.5
2018-Feb-19 17:24S 23°56' W 046°19'0 0.0
2018-Feb-19 16:55S 23°56' W 046°19'0 0.0
2018-Feb-19 16:24S 23°56' W 046°19'0 0.0
2018-Feb-19 15:58S 23°56' W 046°19'0 0.0
2018-Feb-19 15:29S 23°56' W 046°19'0 0.0
2018-Feb-19 14:20S 23°56' W 046°19'0 0.0
2018-Feb-19 12:13S 23°56' W 046°19'0 0.0
2018-Feb-19 11:33S 23°56' W 046°19'0 0.0
2018-Feb-19 11:12S 23°56' W 046°19'0 0.0
2018-Feb-19 10:56S 23°56' W 046°19'0 0.0
2018-Feb-19 10:25S 23°56' W 046°19'0 0.0
2018-Feb-19 09:52S 23°56' W 046°19'0 0.0
2018-Feb-19 09:23S 23°56' W 046°19'0 0.0
2018-Feb-19 08:55S 23°56' W 046°19'0 0.0
2018-Feb-19 08:11S 23°56' W 046°19'0 0.0
2018-Feb-19 07:54S 23°56' W 046°19'0 0.0
2018-Feb-19 07:17S 23°56' W 046°19'0 0.0
2018-Feb-19 06:58S 23°56' W 046°19'0 0.0
2018-Feb-19 06:29S 23°56' W 046°19'0 0.0
2018-Feb-19 05:44S 23°56' W 046°19'0 0.0
2018-Feb-19 05:25S 23°56' W 046°19'0 0.0
2018-Feb-19 04:57S 23°56' W 046°19'0 0.0
2018-Feb-19 03:54S 23°56' W 046°19'0 0.0
2018-Feb-19 03:28S 23°56' W 046°19'0 0.0
2018-Feb-18 19:34S 23°56' W 046°19'0 0.0
2018-Feb-18 19:28S 23°56' W 046°19'0 0.0
2018-Feb-18 18:40S 23°56' W 046°19'0 0.0
2018-Feb-18 18:26S 23°56' W 046°19'0 0.0
2018-Feb-18 17:54S 23°56' W 046°19'0 0.0
2018-Feb-18 17:30S 23°56' W 046°19'0 0.0
2018-Feb-18 16:55S 23°56' W 046°19'0 0.0
2018-Feb-18 16:30S 23°56' W 046°19'3 5.6
2018-Feb-18 16:00S 23°58' W 046°18'0 0.5
2018-Feb-18 15:30S 23°58' W 046°18'1 1.6
2018-Feb-18 14:57S 23°59' W 046°17'4 0.2
2018-Feb-17 23:11S 23°56' W 046°19'0 0.0
2018-Feb-17 22:53S 23°56' W 046°19'0 0.0
2018-Feb-17 22:09S 23°56' W 046°19'0 0.0
2018-Feb-17 21:51S 23°56' W 046°19'0 0.0
2018-Feb-17 20:35S 23°56' W 046°19'0 1.1
2018-Feb-17 20:27S 23°56' W 046°19'2 4.6
2018-Feb-17 20:00S 23°58' W 046°18'0 0.2
2018-Feb-17 19:30S 23°58' W 046°18'1 2.9
2018-Feb-17 19:00S 23°56' W 046°19'1 0.5
2018-Feb-17 17:35S 23°56' W 046°19'0 0.0
2018-Feb-17 17:17S 23°56' W 046°19'0 0.0
2018-Feb-17 15:00S 23°56' W 046°19'0 0.0
2018-Feb-17 14:22S 23°56' W 046°19'0 0.0
2018-Feb-17 13:52S 23°56' W 046°19'0 0.0
2018-Feb-17 13:28S 23°56' W 046°19'0 0.0
2018-Feb-17 12:50S 23°56' W 046°19'0 0.0
2018-Feb-17 12:07S 23°56' W 046°19'0 0.0
2018-Feb-17 12:00S 23°56' W 046°19'0 0.0
2018-Feb-17 11:21S 23°56' W 046°19'0 0.0
2018-Feb-17 10:57S 23°56' W 046°19'0 0.0
2018-Feb-17 10:15S 23°56' W 046°19'0 0.0
2018-Feb-17 09:57S 23°56' W 046°19'0 0.0
2018-Feb-17 09:21S 23°56' W 046°19'0 0.0
2018-Feb-17 08:57S 23°56' W 046°19'0 0.0
2018-Feb-17 07:36S 23°56' W 046°19'0 0.0
2018-Feb-17 07:16S 23°56' W 046°19'0 0.0
2018-Feb-17 06:55S 23°56' W 046°19'0 0.0
2018-Feb-17 06:21S 23°56' W 046°19'0 0.0
2018-Feb-17 05:57S 23°56' W 046°19'0 0.0
2018-Feb-17 05:21S 23°56' W 046°19'0 0.0
2018-Feb-17 04:53S 23°56' W 046°19'0 0.0
2018-Feb-17 04:28S 23°56' W 046°19'0 0.0
2018-Feb-17 04:00S 23°56' W 046°19'0 0.0
2018-Feb-17 02:51S 23°56' W 046°19'0 0.0
2018-Feb-17 02:18S 23°56' W 046°19'0 0.0
2018-Feb-17 00:36S 23°56' W 046°19'0 0.0
2018-Feb-17 00:24S 23°56' W 046°19'0 0.0
2018-Feb-16 23:55S 23°56' W 046°19'0 0.0
2018-Feb-16 23:30S 23°56' W 046°19'0 0.0
2018-Feb-16 22:49S 23°56' W 046°19'0 0.0
2018-Feb-16 22:25S 23°56' W 046°19'0 0.0
2018-Feb-16 21:57S 23°56' W 046°19'0 0.0
2018-Feb-16 21:28S 23°56' W 046°19'0 0.0
2018-Feb-16 20:59S 23°56' W 046°19'0 0.0
2018-Feb-16 20:28S 23°56' W 046°19'0 0.0
2018-Feb-16 20:00S 23°56' W 046°19'0 0.0
2018-Feb-16 19:28S 23°56' W 046°19'0 0.0
2018-Feb-16 18:17S 23°56' W 046°19'0 0.0
2018-Feb-16 17:54S 23°56' W 046°19'0 0.0
2018-Feb-16 17:22S 23°56' W 046°19'0 0.0
2018-Feb-16 13:57S 23°56' W 046°19'0 0.0
2018-Feb-16 13:24S 23°56' W 046°19'0 0.0
2018-Feb-16 11:24S 23°56' W 046°19'0 0.0
2018-Feb-16 10:52S 23°56' W 046°19'0 0.0
2018-Feb-16 10:23S 23°56' W 046°19'0 0.0
2018-Feb-16 09:45S 23°56' W 046°19'0 0.0
2018-Feb-16 08:30S 23°56' W 046°19'0 0.0
2018-Feb-16 07:58S 23°56' W 046°19'0 0.0
2018-Feb-16 07:25S 23°56' W 046°19'0 0.0
2018-Feb-16 04:06S 23°56' W 046°19'0 0.0
2018-Feb-16 03:54S 23°56' W 046°19'0 0.0
2018-Feb-16 03:23S 23°56' W 046°19'0 0.0
2018-Feb-16 02:54S 23°56' W 046°19'0 0.0
2018-Feb-16 02:07S 23°56' W 046°19'0 0.0
2018-Feb-16 01:52S 23°56' W 046°19'0 0.0
2018-Feb-15 22:44S 23°56' W 046°19'0 1.3
2018-Feb-15 22:30S 23°56' W 046°20'0 0.4
2018-Feb-15 21:53S 23°56' W 046°20'1 0.4
2018-Feb-15 20:37S 23°56' W 046°19'0 0.0
2018-Feb-15 20:28S 23°56' W 046°19'0 0.0
2018-Feb-15 19:55S 23°56' W 046°19'0 0.0
2018-Feb-15 19:28S 23°56' W 046°19'0 0.0
2018-Feb-15 18:47S 23°56' W 046°19'0 0.0
2018-Feb-15 18:05S 23°56' W 046°19'0 0.0
2018-Feb-15 16:51S 23°56' W 046°19'0 0.0
2018-Feb-15 16:20S 23°56' W 046°19'0 0.0
2018-Feb-15 15:40S 23°56' W 046°19'0 0.0
2018-Feb-15 15:13S 23°56' W 046°19'0 0.0
2018-Feb-15 14:52S 23°56' W 046°19'0 0.0
2018-Feb-15 12:46S 23°56' W 046°19'1 5.6
2018-Feb-15 12:30S 23°57' W 046°18'2 2.3
2018-Feb-15 11:50S 23°58' W 046°18'1 2.5
2018-Feb-15 11:29S 23°59' W 046°17'2 3.2
2018-Feb-15 10:50S 23°60' W 046°20'2 6.0
2018-Feb-15 10:29S 23°59' W 046°17'3 6.7
2018-Feb-15 10:00S 23°56' W 046°19'1 0.8
2018-Feb-15 09:17S 23°56' W 046°19'0 0.0
2018-Feb-15 08:14S 23°56' W 046°19'0 0.0
2018-Feb-15 07:56S 23°56' W 046°19'0 0.0
2018-Feb-15 07:25S 23°56' W 046°19'0 0.0
2018-Feb-15 06:46S 23°56' W 046°19'0 0.0
2018-Feb-15 06:01S 23°56' W 046°19'0 0.0
2018-Feb-15 05:58S 23°56' W 046°19'0 0.0
2018-Feb-15 05:22S 23°56' W 046°19'0 0.0
2018-Feb-15 04:57S 23°56' W 046°19'0 0.0
2018-Feb-15 04:30S 23°56' W 046°19'0 0.0
2018-Feb-15 03:48S 23°56' W 046°19'0 0.0
2018-Feb-15 03:22S 23°56' W 046°19'0 0.0
2018-Feb-15 03:00S 23°56' W 046°19'0 0.0
2018-Feb-15 02:30S 23°56' W 046°19'0 0.0
2018-Feb-15 01:11S 23°56' W 046°19'0 0.0
2018-Feb-15 00:50S 23°56' W 046°19'0 0.0
2018-Feb-14 22:07S 23°56' W 046°19'0 0.0
2018-Feb-14 21:41S 23°56' W 046°19'0 0.0
2018-Feb-14 21:25S 23°56' W 046°19'0 0.0
2018-Feb-14 20:47S 23°56' W 046°19'0 0.0
2018-Feb-14 20:16S 23°56' W 046°19'0 0.0
2018-Feb-14 19:58S 23°56' W 046°19'0 0.0
2018-Feb-14 18:40S 23°56' W 046°19'0 0.0
2018-Feb-14 18:28S 23°56' W 046°19'0 0.0
2018-Feb-14 17:48S 23°56' W 046°19'0 0.0
2018-Feb-14 17:19S 23°56' W 046°19'1 2.7
2018-Feb-14 16:53S 23°57' W 046°18'0 0.0
2018-Feb-14 16:28S 23°57' W 046°18'1 2.6
2018-Feb-14 16:00S 23°56' W 046°19'0 0.0
2018-Feb-14 14:03S 23°56' W 046°19'0 0.0
2018-Feb-14 09:30S 23°56' W 046°19'2 4.6
2018-Feb-14 09:00S 23°58' W 046°18'0 0.4
2018-Feb-14 08:29S 23°58' W 046°18'0 0.0
2018-Feb-14 07:59S 23°58' W 046°18'0 0.0
2018-Feb-14 07:23S 23°58' W 046°18'0 0.0
2018-Feb-14 06:59S 23°58' W 046°18'0 0.0
2018-Feb-14 06:22S 23°58' W 046°18'0 0.0
2018-Feb-14 05:52S 23°58' W 046°18'0 0.0
2018-Feb-14 04:42S 23°58' W 046°18'0 0.0
2018-Feb-14 04:27S 23°58' W 046°18'0 0.0
2018-Feb-14 03:57S 23°58' W 046°18'0 0.0
2018-Feb-14 03:30S 23°58' W 046°18'0 0.0
2018-Feb-14 03:00S 23°58' W 046°18'0 0.0
2018-Feb-14 02:22S 23°58' W 046°18'0 0.0
2018-Feb-14 01:02S 23°58' W 046°18'0 0.0
2018-Feb-14 00:59S 23°58' W 046°18'0 0.0
2018-Feb-14 00:28S 23°58' W 046°18'1 0.4
2018-Feb-13 21:12S 23°59' W 046°18'1 3.3
2018-Feb-13 20:55S 23°60' W 046°18'2 3.6
2018-Feb-13 20:29S 23°58' W 046°18'0 0.1
2018-Feb-13 20:00S 23°58' W 046°18'3 0.4
2018-Feb-13 13:36S 23°56' W 046°19'0 0.0
2018-Feb-12 23:03S 23°56' W 046°19'0 0.0
2018-Feb-12 22:51S 23°56' W 046°19'0 0.0
2018-Feb-12 22:11S 23°56' W 046°19'0 0.0
2018-Feb-12 21:42S 23°56' W 046°19'0 0.0
2018-Feb-12 19:42S 23°56' W 046°19'0 0.0
2018-Feb-12 19:15S 23°56' W 046°19'0 0.0
2018-Feb-12 19:00S 23°56' W 046°19'0 0.0
2018-Feb-12 18:25S 23°56' W 046°19'0 0.0
2018-Feb-12 17:48S 23°56' W 046°19'2 2.4
2018-Feb-12 16:53S 23°55' W 046°22'2 5.2
2018-Feb-12 16:28S 23°56' W 046°19'0 0.0
2018-Feb-12 15:12S 23°56' W 046°19'0 0.0
2018-Feb-12 15:00S 23°56' W 046°19'0 0.0
2018-Feb-12 14:28S 23°56' W 046°19'0 0.0
2018-Feb-12 13:56S 23°56' W 046°19'0 0.0
2018-Feb-12 13:27S 23°56' W 046°19'0 0.0
2018-Feb-12 13:00S 23°56' W 046°19'0 0.0
2018-Feb-12 12:26S 23°56' W 046°19'0 0.0
2018-Feb-12 11:51S 23°56' W 046°19'0 0.0
2018-Feb-12 10:45S 23°56' W 046°19'0 0.0
2018-Feb-12 10:12S 23°56' W 046°19'0 0.0
2018-Feb-12 09:57S 23°56' W 046°19'2 4.8
2018-Feb-12 09:30S 23°58' W 046°18'1 1.2
2018-Feb-12 08:44S 23°58' W 046°18'1 3.5
2018-Feb-12 08:30S 23°59' W 046°17'2 3.9
2018-Feb-12 08:00S 23°60' W 046°20'2 4.0
2018-Feb-12 07:27S 23°58' W 046°17'3 5.8
2018-Feb-12 06:55S 23°56' W 046°19'0 0.0
2018-Feb-12 06:12S 23°56' W 046°19'0 0.0
2018-Feb-12 05:45S 23°56' W 046°19'0 0.0
2018-Feb-12 05:21S 23°56' W 046°19'0 0.0
2018-Feb-12 04:48S 23°56' W 046°19'0 0.0
2018-Feb-12 04:24S 23°56' W 046°19'0 0.0
2018-Feb-12 04:00S 23°56' W 046°19'0 0.0
2018-Feb-12 03:29S 23°56' W 046°19'0 0.0
2018-Feb-12 02:58S 23°56' W 046°19'0 0.0
2018-Feb-12 02:29S 23°56' W 046°19'0 0.0
2018-Feb-12 01:52S 23°56' W 046°19'0 0.0
2018-Feb-12 01:18S 23°56' W 046°19'  
Track history (hours):
 
Tides and Currents Weather Stations Pressure Air Temp Water Temp Dewpoint Dewpoint Depression Visibility Wind Speed Wind Dir Waves Ship Positions

Starnav_pegasus

Last reported at 2018-Feb-22 00:38 UTC. Time now 2018-Feb-24 02:19 UTC.
Position S 23°56' W 046°19'.

; draft 5.6 m.

Type: Ship. MMSI: 710005860.

Date/timePositionNaut miles runAvg speedWind from/ knotsBaromVisibWave heightAir tempDewpointWater temp
2018-Feb-22 00:38S 23°56' W 046°19'0 0.0
2018-Feb-22 00:29S 23°56' W 046°19'0 0.0
2018-Feb-21 23:32S 23°56' W 046°19'0 0.1
2018-Feb-21 23:26S 23°56' W 046°19'0 0.0
2018-Feb-21 22:57S 23°56' W 046°19'0 0.0
2018-Feb-21 22:21S 23°56' W 046°19'0 0.0
2018-Feb-21 21:51S 23°56' W 046°19'0 0.0
2018-Feb-21 21:27S 23°56' W 046°19'0 0.0
2018-Feb-21 20:57S 23°56' W 046°19'0 0.0
2018-Feb-21 20:21S 23°56' W 046°19'1 3.2
2018-Feb-21 19:58S 23°57' W 046°18'0 0.0
2018-Feb-21 19:26S 23°57' W 046°18'1 2.6
2018-Feb-21 18:59S 23°56' W 046°19'0 0.2
2018-Feb-21 18:27S 23°56' W 046°19'0 0.0
2018-Feb-21 17:57S 23°56' W 046°19'0 0.0
2018-Feb-21 17:23S 23°56' W 046°19'0 0.0
2018-Feb-21 16:59S 23°56' W 046°19'0 0.0
2018-Feb-21 16:28S 23°56' W 046°19'0 0.0
2018-Feb-21 16:00S 23°56' W 046°19'0 0.0
2018-Feb-21 15:21S 23°56' W 046°19'0 0.0
2018-Feb-21 14:55S 23°56' W 046°19'0 0.0
2018-Feb-21 14:30S 23°56' W 046°19'0 0.0
2018-Feb-21 13:41S 23°56' W 046°19'0 0.0
2018-Feb-21 13:12S 23°56' W 046°19'0 0.0
2018-Feb-21 12:44S 23°56' W 046°19'0 0.0
2018-Feb-21 12:27S 23°56' W 046°19'0 0.0
2018-Feb-21 11:59S 23°56' W 046°19'1 2.9
2018-Feb-21 11:29S 23°57' W 046°18'0 0.9
2018-Feb-21 11:00S 23°57' W 046°19'1 1.2
2018-Feb-21 10:11S 23°56' W 046°19'0 0.0
2018-Feb-21 09:56S 23°56' W 046°19'0 0.0
2018-Feb-21 08:13S 23°56' W 046°19'0 0.0
2018-Feb-21 07:53S 23°56' W 046°19'0 0.0
2018-Feb-21 07:23S 23°56' W 046°19'0 0.0
2018-Feb-21 06:47S 23°56' W 046°19'0 0.0
2018-Feb-21 06:27S 23°56' W 046°19'0 0.0
2018-Feb-21 05:02S 23°56' W 046°19'0 0.0
2018-Feb-21 04:59S 23°56' W 046°19'0 0.0
2018-Feb-21 02:16S 23°56' W 046°19'2 1.2
2018-Feb-21 00:56S 23°55' W 046°21'4 8.3
2018-Feb-21 00:28S 23°58' W 046°18'1 1.0
2018-Feb-20 23:26S 23°59' W 046°17'2 5.7
2018-Feb-20 23:00S 23°56' W 046°19'1 1.3
2018-Feb-20 22:21S 23°56' W 046°19'0 0.0
2018-Feb-20 19:39S 23°56' W 046°19'0 0.0
2018-Feb-20 19:30S 23°56' W 046°19'0 0.0
2018-Feb-20 18:03S 23°56' W 046°19'0 0.0
2018-Feb-20 16:20S 23°56' W 046°19'0 0.0
2018-Feb-20 15:50S 23°56' W 046°19'0 0.0
2018-Feb-20 15:29S 23°56' W 046°19'0 0.0
2018-Feb-20 14:06S 23°56' W 046°19'0 0.1
2018-Feb-20 14:00S 23°56' W 046°19'0 0.0
2018-Feb-20 12:56S 23°56' W 046°19'0 0.0
2018-Feb-20 12:26S 23°56' W 046°19'0 0.0
2018-Feb-20 10:44S 23°56' W 046°19'0 0.0
2018-Feb-20 10:21S 23°56' W 046°19'0 0.0
2018-Feb-20 09:59S 23°56' W 046°19'0 1.0
2018-Feb-20 09:30S 23°56' W 046°20'3 6.3
2018-Feb-20 09:00S 23°54' W 046°23'1 0.8
2018-Feb-20 07:39S 23°53' W 046°23'1 3.5
2018-Feb-20 07:30S 23°53' W 046°23'3 5.8
2018-Feb-20 07:00S 23°55' W 046°20'4 7.8
2018-Feb-20 06:30S 23°58' W 046°18'0 0.6
2018-Feb-20 06:00S 23°58' W 046°18'2 3.9
2018-Feb-20 05:30S 23°56' W 046°19'1 0.2
2018-Feb-20 01:17S 23°56' W 046°19'0 0.0
2018-Feb-20 00:37S 23°56' W 046°19'0 0.0
2018-Feb-20 00:14S 23°56' W 046°19'0 0.2
2018-Feb-19 23:56S 23°56' W 046°19'1 0.8
2018-Feb-19 23:07S 23°56' W 046°20'0 2.4
2018-Feb-19 23:00S 23°56' W 046°20'4 7.1
2018-Feb-19 22:30S 23°59' W 046°17'1 2.4
2018-Feb-19 21:57S 23°60' W 046°18'2 4.0
2018-Feb-19 21:30S 23°58' W 046°18'2 3.1
2018-Feb-19 20:45S 23°56' W 046°19'0 0.0
2018-Feb-19 20:28S 23°56' W 046°19'0 0.0
2018-Feb-19 19:56S 23°56' W 046°19'0 0.0
2018-Feb-19 19:29S 23°56' W 046°19'0 0.0
2018-Feb-19 18:53S 23°56' W 046°19'0 0.0
2018-Feb-19 18:25S 23°56' W 046°19'0 0.7
2018-Feb-19 18:00S 23°56' W 046°19'0 0.5
2018-Feb-19 17:24S 23°56' W 046°19'0 0.0
2018-Feb-19 16:55S 23°56' W 046°19'0 0.0
2018-Feb-19 16:24S 23°56' W 046°19'0 0.0
2018-Feb-19 15:58S 23°56' W 046°19'0 0.0
2018-Feb-19 15:29S 23°56' W 046°19'0 0.0
2018-Feb-19 14:20S 23°56' W 046°19'0 0.0
2018-Feb-19 12:13S 23°56' W 046°19'0 0.0
2018-Feb-19 11:33S 23°56' W 046°19'0 0.0
2018-Feb-19 11:12S 23°56' W 046°19'0 0.0
2018-Feb-19 10:56S 23°56' W 046°19'0 0.0
2018-Feb-19 10:25S 23°56' W 046°19'0 0.0
2018-Feb-19 09:52S 23°56' W 046°19'0 0.0
2018-Feb-19 09:23S 23°56' W 046°19'0 0.0
2018-Feb-19 08:55S 23°56' W 046°19'0 0.0
2018-Feb-19 08:11S 23°56' W 046°19'0 0.0
2018-Feb-19 07:54S 23°56' W 046°19'0 0.0
2018-Feb-19 07:17S 23°56' W 046°19'0 0.0
2018-Feb-19 06:58S 23°56' W 046°19'0 0.0
2018-Feb-19 06:29S 23°56' W 046°19'0 0.0
2018-Feb-19 05:44S 23°56' W 046°19'0 0.0
2018-Feb-19 05:25S 23°56' W 046°19'0 0.0
2018-Feb-19 04:57S 23°56' W 046°19'0 0.0
2018-Feb-19 03:54S 23°56' W 046°19'0 0.0
2018-Feb-19 03:28S 23°56' W 046°19'0 0.0
2018-Feb-18 19:34S 23°56' W 046°19'0 0.0
2018-Feb-18 19:28S 23°56' W 046°19'0 0.0
2018-Feb-18 18:40S 23°56' W 046°19'0 0.0
2018-Feb-18 18:26S 23°56' W 046°19'0 0.0
2018-Feb-18 17:54S 23°56' W 046°19'0 0.0
2018-Feb-18 17:30S 23°56' W 046°19'0 0.0
2018-Feb-18 16:55S 23°56' W 046°19'0 0.0
2018-Feb-18 16:30S 23°56' W 046°19'3 5.6
2018-Feb-18 16:00S 23°58' W 046°18'0 0.5
2018-Feb-18 15:30S 23°58' W 046°18'1 1.6
2018-Feb-18 14:57S 23°59' W 046°17'4 0.2
2018-Feb-17 23:11S 23°56' W 046°19'0 0.0
2018-Feb-17 22:53S 23°56' W 046°19'0 0.0
2018-Feb-17 22:09S 23°56' W 046°19'0 0.0
2018-Feb-17 21:51S 23°56' W 046°19'0 0.0
2018-Feb-17 20:35S 23°56' W 046°19'0 1.1
2018-Feb-17 20:27S 23°56' W 046°19'2 4.6
2018-Feb-17 20:00S 23°58' W 046°18'0 0.2
2018-Feb-17 19:30S 23°58' W 046°18'1 2.9
2018-Feb-17 19:00S 23°56' W 046°19'1 0.5
2018-Feb-17 17:35S 23°56' W 046°19'0 0.0
2018-Feb-17 17:17S 23°56' W 046°19'0 0.0
2018-Feb-17 15:00S 23°56' W 046°19'0 0.0
2018-Feb-17 14:22S 23°56' W 046°19'0 0.0
2018-Feb-17 13:52S 23°56' W 046°19'0 0.0
2018-Feb-17 13:28S 23°56' W 046°19'0 0.0
2018-Feb-17 12:50S 23°56' W 046°19'0 0.0
2018-Feb-17 12:07S 23°56' W 046°19'0 0.0
2018-Feb-17 12:00S 23°56' W 046°19'0 0.0
2018-Feb-17 11:21S 23°56' W 046°19'0 0.0
2018-Feb-17 10:57S 23°56' W 046°19'0 0.0
2018-Feb-17 10:15S 23°56' W 046°19'0 0.0
2018-Feb-17 09:57S 23°56' W 046°19'0 0.0
2018-Feb-17 09:21S 23°56' W 046°19'0 0.0
2018-Feb-17 08:57S 23°56' W 046°19'0 0.0
2018-Feb-17 07:36S 23°56' W 046°19'0 0.0
2018-Feb-17 07:16S 23°56' W 046°19'0 0.0
2018-Feb-17 06:55S 23°56' W 046°19'0 0.0
2018-Feb-17 06:21S 23°56' W 046°19'0 0.0
2018-Feb-17 05:57S 23°56' W 046°19'0 0.0
2018-Feb-17 05:21S 23°56' W 046°19'0 0.0
2018-Feb-17 04:53S 23°56' W 046°19'0 0.0
2018-Feb-17 04:28S 23°56' W 046°19'0 0.0
2018-Feb-17 04:00S 23°56' W 046°19'0 0.0
2018-Feb-17 02:51S 23°56' W 046°19'0 0.0
2018-Feb-17 02:18S 23°56' W 046°19'0 0.0
2018-Feb-17 00:36S 23°56' W 046°19'0 0.0
2018-Feb-17 00:24S 23°56' W 046°19'0 0.0
2018-Feb-16 23:55S 23°56' W 046°19'0 0.0
2018-Feb-16 23:30S 23°56' W 046°19'0 0.0
2018-Feb-16 22:49S 23°56' W 046°19'0 0.0
2018-Feb-16 22:25S 23°56' W 046°19'0 0.0
2018-Feb-16 21:57S 23°56' W 046°19'0 0.0
2018-Feb-16 21:28S 23°56' W 046°19'0 0.0
2018-Feb-16 20:59S 23°56' W 046°19'0 0.0
2018-Feb-16 20:28S 23°56' W 046°19'0 0.0
2018-Feb-16 20:00S 23°56' W 046°19'0 0.0
2018-Feb-16 19:28S 23°56' W 046°19'0 0.0
2018-Feb-16 18:17S 23°56' W 046°19'0 0.0
2018-Feb-16 17:54S 23°56' W 046°19'0 0.0
2018-Feb-16 17:22S 23°56' W 046°19'0 0.0
2018-Feb-16 13:57S 23°56' W 046°19'0 0.0
2018-Feb-16 13:24S 23°56' W 046°19'0 0.0
2018-Feb-16 11:24S 23°56' W 046°19'0 0.0
2018-Feb-16 10:52S 23°56' W 046°19'0 0.0
2018-Feb-16 10:23S 23°56' W 046°19'0 0.0
2018-Feb-16 09:45S 23°56' W 046°19'0 0.0
2018-Feb-16 08:30S 23°56' W 046°19'0 0.0
2018-Feb-16 07:58S 23°56' W 046°19'0 0.0
2018-Feb-16 07:25S 23°56' W 046°19'0 0.0
2018-Feb-16 04:06S 23°56' W 046°19'0 0.0
2018-Feb-16 03:54S 23°56' W 046°19'0 0.0
2018-Feb-16 03:23S 23°56' W 046°19'0 0.0
2018-Feb-16 02:54S 23°56' W 046°19'0 0.0
2018-Feb-16 02:07S 23°56' W 046°19'0 0.0
2018-Feb-16 01:52S 23°56' W 046°19'0 0.0
2018-Feb-15 22:44S 23°56' W 046°19'0 1.3
2018-Feb-15 22:30S 23°56' W 046°20'0 0.4
2018-Feb-15 21:53S 23°56' W 046°20'1 0.4
2018-Feb-15 20:37S 23°56' W 046°19'0 0.0
2018-Feb-15 20:28S 23°56' W 046°19'0 0.0
2018-Feb-15 19:55S 23°56' W 046°19'0 0.0
2018-Feb-15 19:28S 23°56' W 046°19'0 0.0
2018-Feb-15 18:47S 23°56' W 046°19'0 0.0
2018-Feb-15 18:05S 23°56' W 046°19'0 0.0
2018-Feb-15 16:51S 23°56' W 046°19'0 0.0
2018-Feb-15 16:20S 23°56' W 046°19'0 0.0
2018-Feb-15 15:40S 23°56' W 046°19'0 0.0
2018-Feb-15 15:13S 23°56' W 046°19'0 0.0
2018-Feb-15 14:52S 23°56' W 046°19'0 0.0
2018-Feb-15 12:46S 23°56' W 046°19'1 5.6
2018-Feb-15 12:30S 23°57' W 046°18'2 2.3
2018-Feb-15 11:50S 23°58' W 046°18'1 2.5
2018-Feb-15 11:29S 23°59' W 046°17'2 3.2
2018-Feb-15 10:50S 23°60' W 046°20'2 6.0
2018-Feb-15 10:29S 23°59' W 046°17'3 6.7
2018-Feb-15 10:00S 23°56' W 046°19'1 0.8
2018-Feb-15 09:17S 23°56' W 046°19'0 0.0
2018-Feb-15 08:14S 23°56' W 046°19'0 0.0
2018-Feb-15 07:56S 23°56' W 046°19'0 0.0
2018-Feb-15 07:25S 23°56' W 046°19'0 0.0
2018-Feb-15 06:46S 23°56' W 046°19'0 0.0
2018-Feb-15 06:01S 23°56' W 046°19'0 0.0
2018-Feb-15 05:58S 23°56' W 046°19'0 0.0
2018-Feb-15 05:22S 23°56' W 046°19'0 0.0
2018-Feb-15 04:57S 23°56' W 046°19'0 0.0
2018-Feb-15 04:30S 23°56' W 046°19'0 0.0
2018-Feb-15 03:48S 23°56' W 046°19'0 0.0
2018-Feb-15 03:22S 23°56' W 046°19'0 0.0
2018-Feb-15 03:00S 23°56' W 046°19'0 0.0
2018-Feb-15 02:30S 23°56' W 046°19'0 0.0
2018-Feb-15 01:11S 23°56' W 046°19'0 0.0
2018-Feb-15 00:50S 23°56' W 046°19'0 0.0
2018-Feb-14 22:07S 23°56' W 046°19'0 0.0
2018-Feb-14 21:41S 23°56' W 046°19'0 0.0
2018-Feb-14 21:25S 23°56' W 046°19'0 0.0
2018-Feb-14 20:47S 23°56' W 046°19'0 0.0
2018-Feb-14 20:16S 23°56' W 046°19'0 0.0
2018-Feb-14 19:58S 23°56' W 046°19'0 0.0
2018-Feb-14 18:40S 23°56' W 046°19'0 0.0
2018-Feb-14 18:28S 23°56' W 046°19'0 0.0
2018-Feb-14 17:48S 23°56' W 046°19'0 0.0
2018-Feb-14 17:19S 23°56' W 046°19'1 2.7
2018-Feb-14 16:53S 23°57' W 046°18'0 0.0
2018-Feb-14 16:28S 23°57' W 046°18'1 2.6
2018-Feb-14 16:00S 23°56' W 046°19'0 0.0
2018-Feb-14 14:03S 23°56' W 046°19'0 0.0
2018-Feb-14 09:30S 23°56' W 046°19'2 4.6
2018-Feb-14 09:00S 23°58' W 046°18'0 0.4
2018-Feb-14 08:29S 23°58' W 046°18'0 0.0
2018-Feb-14 07:59S 23°58' W 046°18'0 0.0
2018-Feb-14 07:23S 23°58' W 046°18'0 0.0
2018-Feb-14 06:59S 23°58' W 046°18'0 0.0
2018-Feb-14 06:22S 23°58' W 046°18'0 0.0
2018-Feb-14 05:52S 23°58' W 046°18'0 0.0
2018-Feb-14 04:42S 23°58' W 046°18'0 0.0
2018-Feb-14 04:27S 23°58' W 046°18'0 0.0
2018-Feb-14 03:57S 23°58' W 046°18'0 0.0
2018-Feb-14 03:30S 23°58' W 046°18'0 0.0
2018-Feb-14 03:00S 23°58' W 046°18'0 0.0
2018-Feb-14 02:22S 23°58' W 046°18'0 0.0
2018-Feb-14 01:02S 23°58' W 046°18'0 0.0
2018-Feb-14 00:59S 23°58' W 046°18'0 0.0
2018-Feb-14 00:28S 23°58' W 046°18'1 0.4
2018-Feb-13 21:12S 23°59' W 046°18'1 3.3
2018-Feb-13 20:55S 23°60' W 046°18'2 3.6
2018-Feb-13 20:29S 23°58' W 046°18'0 0.1
2018-Feb-13 20:00S 23°58' W 046°18'3 0.4
2018-Feb-13 13:36S 23°56' W 046°19'0 0.0
2018-Feb-12 23:03S 23°56' W 046°19'0 0.0
2018-Feb-12 22:51S 23°56' W 046°19'0 0.0
2018-Feb-12 22:11S 23°56' W 046°19'0 0.0
2018-Feb-12 21:42S 23°56' W 046°19'0 0.0
2018-Feb-12 19:42S 23°56' W 046°19'0 0.0
2018-Feb-12 19:15S 23°56' W 046°19'0 0.0
2018-Feb-12 19:00S 23°56' W 046°19'0 0.0
2018-Feb-12 18:25S 23°56' W 046°19'0 0.0
2018-Feb-12 17:48S 23°56' W 046°19'2 2.4
2018-Feb-12 16:53S 23°55' W 046°22'2 5.2
2018-Feb-12 16:28S 23°56' W 046°19'0 0.0
2018-Feb-12 15:12S 23°56' W 046°19'0 0.0
2018-Feb-12 15:00S 23°56' W 046°19'0 0.0
2018-Feb-12 14:28S 23°56' W 046°19'0 0.0
2018-Feb-12 13:56S 23°56' W 046°19'0 0.0
2018-Feb-12 13:27S 23°56' W 046°19'0 0.0
2018-Feb-12 13:00S 23°56' W 046°19'0 0.0
2018-Feb-12 12:26S 23°56' W 046°19'0 0.0
2018-Feb-12 11:51S 23°56' W 046°19'0 0.0
2018-Feb-12 10:45S 23°56' W 046°19'0 0.0
2018-Feb-12 10:12S 23°56' W 046°19'0 0.0
2018-Feb-12 09:57S 23°56' W 046°19'2 4.8
2018-Feb-12 09:30S 23°58' W 046°18'1 1.2
2018-Feb-12 08:44S 23°58' W 046°18'1 3.5
2018-Feb-12 08:30S 23°59' W 046°17'2 3.9
2018-Feb-12 08:00S 23°60' W 046°20'2 4.0
2018-Feb-12 07:27S 23°58' W 046°17'3 5.8
2018-Feb-12 06:55S 23°56' W 046°19'0 0.0
2018-Feb-12 06:12S 23°56' W 046°19'0 0.0
2018-Feb-12 05:45S 23°56' W 046°19'0 0.0
2018-Feb-12 05:21S 23°56' W 046°19'0 0.0
2018-Feb-12 04:48S 23°56' W 046°19'0 0.0
2018-Feb-12 04:24S 23°56' W 046°19'0 0.0
2018-Feb-12 04:00S 23°56' W 046°19'0 0.0
2018-Feb-12 03:29S 23°56' W 046°19'0 0.0
2018-Feb-12 02:58S 23°56' W 046°19'0 0.0
2018-Feb-12 02:29S 23°56' W 046°19'0 0.0
2018-Feb-12 01:52S 23°56' W 046°19'0 0.0
2018-Feb-12 01:18S 23°56' W 046°19'  

Dump ship's entire track history